createdAt,value
2019-05-21T00:00:38.203Z,29.53
2019-05-21T00:03:10.541Z,31.57
2019-05-21T00:05:42.989Z,28.67
2019-05-21T00:08:15.476Z,27.80
2019-05-21T00:10:48.033Z,29.50
2019-05-21T00:13:20.376Z,28.23
2019-05-21T00:15:52.850Z,28.27
2019-05-21T00:18:25.259Z,29.10
2019-05-21T00:20:57.740Z,28.40
2019-05-21T00:23:30.123Z,31.17
2019-05-21T00:26:02.654Z,27.60
2019-05-21T00:28:39.789Z,28.57
2019-05-21T00:32:06.248Z,29.37
2019-05-21T00:35:49.116Z,29.87
2019-05-21T00:39:15.699Z,29.10
2019-05-21T00:42:03.194Z,27.57
2019-05-21T00:44:39.385Z,30.57
2019-05-21T00:47:12.651Z,31.37
2019-05-21T00:49:45.068Z,32.00
2019-05-21T00:52:17.510Z,31.63
2019-05-21T00:54:50.027Z,33.33
2019-05-21T00:57:22.499Z,32.70
2019-05-21T00:59:54.914Z,31.30
2019-05-21T01:02:27.349Z,31.80
2019-05-21T01:05:01.446Z,31.90
2019-05-21T01:07:33.972Z,32.00
2019-05-21T01:10:06.653Z,31.50
2019-05-21T01:12:39.098Z,31.60
2019-05-21T01:15:11.589Z,29.77
2019-05-21T01:17:44.017Z,31.00
2019-05-21T01:20:16.476Z,32.77
2019-05-21T01:22:48.899Z,30.27
2019-05-21T01:25:21.303Z,30.80
2019-05-21T01:27:53.737Z,31.50
2019-05-21T01:30:26.151Z,29.80
2019-05-21T01:32:58.580Z,29.53
2019-05-21T01:35:30.988Z,29.70
2019-05-21T01:38:03.428Z,28.50
2019-05-21T01:40:35.830Z,27.63
2019-05-21T01:43:08.262Z,27.50
2019-05-21T01:45:40.680Z,27.27
2019-05-21T01:48:13.103Z,28.70
2019-05-21T01:50:45.448Z,29.30
2019-05-21T01:53:17.868Z,26.73
2019-05-21T01:55:51.348Z,27.93
2019-05-21T01:58:23.867Z,27.00
2019-05-21T02:00:56.288Z,27.93
2019-05-21T02:03:28.715Z,26.13
2019-05-21T02:06:01.136Z,25.77
2019-05-21T02:08:34.533Z,26.00
2019-05-21T02:11:06.938Z,25.57
2019-05-21T02:13:39.364Z,26.60
2019-05-21T02:16:11.775Z,25.77
2019-05-21T02:18:44.205Z,25.70
2019-05-21T02:21:16.637Z,24.53
2019-05-21T02:23:49.077Z,25.60
2019-05-21T02:26:21.494Z,24.63
2019-05-21T02:28:53.850Z,23.97
2019-05-21T02:31:26.364Z,23.57
2019-05-21T02:33:58.730Z,22.03
2019-05-21T02:36:31.155Z,21.90
2019-05-21T02:39:05.692Z,21.70
2019-05-21T02:41:38.116Z,21.73
2019-05-21T02:44:10.541Z,20.17
2019-05-21T02:46:42.944Z,21.03
2019-05-21T02:49:16.437Z,19.33
2019-05-21T02:51:48.850Z,17.73
2019-05-21T02:54:37.543Z,18.30
2019-05-21T02:56:55.393Z,18.57
2019-05-21T02:59:27.825Z,17.57
2019-05-21T03:02:18.288Z,17.47
2019-05-21T03:04:50.770Z,17.13
2019-05-21T03:07:25.529Z,16.73
2019-05-21T03:09:57.319Z,15.97
2019-05-21T03:12:29.735Z,15.60
2019-05-21T03:15:02.181Z,16.17
2019-05-21T03:17:34.595Z,15.17
2019-05-21T03:20:07.131Z,15.47
2019-05-21T03:22:39.568Z,14.57
2019-05-21T03:25:12.312Z,14.90
2019-05-21T03:27:44.715Z,14.30
2019-05-21T03:30:17.189Z,14.73
2019-05-21T03:32:49.646Z,13.37
2019-05-21T03:35:22.072Z,12.90
2019-05-21T03:37:54.491Z,12.23
2019-05-21T03:40:26.929Z,14.93
2019-05-21T03:42:59.335Z,12.43
2019-05-21T03:45:31.771Z,12.97
2019-05-21T03:48:04.186Z,11.83
2019-05-21T03:50:36.559Z,12.43
2019-05-21T03:53:08.982Z,11.10
2019-05-21T03:55:41.461Z,10.93
2019-05-21T03:58:14.942Z,10.73
2019-05-21T04:00:47.462Z,10.67
2019-05-21T04:03:19.903Z,10.63
2019-05-21T04:05:52.315Z,9.83
2019-05-21T04:08:24.756Z,11.03
2019-05-21T04:10:57.130Z,9.63
2019-05-21T04:13:29.612Z,10.17
2019-05-21T04:16:19.829Z,9.57
2019-05-21T04:19:14.266Z,8.23
2019-05-21T04:21:46.698Z,9.00
2019-05-21T04:24:19.454Z,8.63
2019-05-21T04:26:51.915Z,9.27
2019-05-21T04:29:24.321Z,8.47
2019-05-21T04:31:56.755Z,9.13
2019-05-21T04:34:29.185Z,8.27
2019-05-21T04:37:11.018Z,8.73
2019-05-21T04:39:35.710Z,8.20
2019-05-21T04:42:08.261Z,7.93
2019-05-21T04:44:40.656Z,8.00
2019-05-21T04:47:13.004Z,7.20
2019-05-21T04:49:45.415Z,7.60
2019-05-21T04:52:17.830Z,5.73
2019-05-21T04:54:50.232Z,5.07
2019-05-21T04:57:22.663Z,4.97
2019-05-21T04:59:55.059Z,5.43
2019-05-21T05:02:27.485Z,5.10
2019-05-21T05:04:59.893Z,5.20
2019-05-21T05:07:32.316Z,5.37
2019-05-21T05:10:05.298Z,5.40
2019-05-21T05:12:37.648Z,5.93
2019-05-21T05:17:30.912Z,6.50
2019-05-21T05:20:03.365Z,6.47
2019-05-21T05:22:35.783Z,5.77
2019-05-21T05:25:09.276Z,6.23
2019-05-21T05:27:52.044Z,5.90
2019-05-21T05:30:27.788Z,6.87
2019-05-21T05:33:00.202Z,6.23
2019-05-21T05:35:32.620Z,5.70
2019-05-21T05:38:05.025Z,5.70
2019-05-21T05:40:37.482Z,5.30
2019-05-21T05:43:10.933Z,5.70
2019-05-21T05:45:43.352Z,4.80
2019-05-21T05:48:16.369Z,5.03
2019-05-21T05:50:51.546Z,4.50
2019-05-21T05:53:24.322Z,4.27
2019-05-21T05:55:56.750Z,4.40
2019-05-21T05:58:29.182Z,3.97
2019-05-21T06:01:01.652Z,4.20
2019-05-21T06:03:34.224Z,4.03
2019-05-21T06:06:06.625Z,3.60
2019-05-21T06:08:39.048Z,3.90
2019-05-21T06:11:11.518Z,4.20
2019-05-21T06:13:43.949Z,3.50
2019-05-21T06:16:16.358Z,3.13
2019-05-21T06:18:48.803Z,3.77
2019-05-21T06:21:21.221Z,3.47
2019-05-21T06:23:53.687Z,3.77
2019-05-21T06:26:26.111Z,3.43
2019-05-21T06:28:58.598Z,3.40
2019-05-21T06:31:33.756Z,2.90
2019-05-21T06:34:06.497Z,3.30
2019-05-21T06:36:38.915Z,2.90
2019-05-21T06:39:11.328Z,2.83
2019-05-21T06:41:43.768Z,3.27
2019-05-21T06:44:18.329Z,3.07
2019-05-21T06:46:50.730Z,2.80
2019-05-21T06:49:23.159Z,3.47
2019-05-21T06:51:55.558Z,3.33
2019-05-21T06:54:27.971Z,3.03
2019-05-21T06:57:00.397Z,2.90
2019-05-21T06:59:32.812Z,2.50
2019-05-21T07:02:05.223Z,2.63
2019-05-21T07:04:40.693Z,2.70
2019-05-21T07:07:13.100Z,2.23
2019-05-21T07:09:46.602Z,2.10
2019-05-21T07:12:18.995Z,2.00
2019-05-21T07:14:51.416Z,1.43
2019-05-21T07:17:23.819Z,1.70
2019-05-21T07:19:56.273Z,1.50
2019-05-21T07:22:28.730Z,2.10
2019-05-21T07:25:02.125Z,1.70
2019-05-21T07:27:34.600Z,1.70
2019-05-21T07:30:08.677Z,1.80
2019-05-21T07:32:41.281Z,1.77
2019-05-21T07:35:13.718Z,1.60
2019-05-21T07:37:46.129Z,1.50
2019-05-21T07:40:19.259Z,1.60
2019-05-21T07:42:51.653Z,1.60
2019-05-21T07:45:24.090Z,1.60
2019-05-21T07:47:56.502Z,1.30
2019-05-21T07:50:28.926Z,1.30
2019-05-21T07:53:01.324Z,1.43
2019-05-21T07:55:33.675Z,1.20
2019-05-21T07:58:06.075Z,1.50
2019-05-21T08:00:38.503Z,1.00
2019-05-21T08:03:10.902Z,1.10
2019-05-21T08:05:43.326Z,1.30
2019-05-21T08:08:15.720Z,1.20
2019-05-21T08:10:48.139Z,1.10
2019-05-21T08:13:20.485Z,1.10
2019-05-21T08:15:52.924Z,1.50
2019-05-21T08:18:25.363Z,1.07
2019-05-21T08:20:57.842Z,1.13
2019-05-21T08:23:30.237Z,1.40
2019-05-21T08:26:02.686Z,1.17
2019-05-21T08:28:35.091Z,1.40
2019-05-21T08:31:07.515Z,1.10
2019-05-21T08:33:39.968Z,1.17
2019-05-21T08:36:12.393Z,1.10
2019-05-21T08:38:44.718Z,1.30
2019-05-21T08:41:17.144Z,1.63
2019-05-21T08:43:49.556Z,1.30
2019-05-21T08:46:21.977Z,1.70
2019-05-21T08:48:54.376Z,1.43
2019-05-21T08:51:26.806Z,1.60
2019-05-21T08:53:59.265Z,1.50
2019-05-21T08:56:31.696Z,1.47
2019-05-21T08:59:04.111Z,1.30
2019-05-21T09:01:36.457Z,1.80
2019-05-21T09:04:08.852Z,1.60
2019-05-21T09:06:41.275Z,2.30
2019-05-21T09:09:13.681Z,1.67
2019-05-21T09:11:46.117Z,1.83
2019-05-21T09:14:18.506Z,2.00
2019-05-21T09:16:50.934Z,2.10
2019-05-21T09:19:23.365Z,2.40
2019-05-21T09:21:55.815Z,2.40
2019-05-21T09:24:28.222Z,2.30
2019-05-21T09:27:00.655Z,2.80
2019-05-21T09:29:33.059Z,2.73
2019-05-21T09:32:05.415Z,2.47
2019-05-21T09:34:48.154Z,2.73
2019-05-21T09:37:19.706Z,2.70
2019-05-21T09:39:45.997Z,2.63
2019-05-21T09:42:18.450Z,2.63
2019-05-21T09:44:50.894Z,2.80
2019-05-21T09:47:23.364Z,2.73
2019-05-21T09:49:55.855Z,2.27
2019-05-21T09:52:28.306Z,2.17
2019-05-21T09:55:00.785Z,2.27
2019-05-21T09:57:39.293Z,2.60
2019-05-21T10:00:30.049Z,2.43
2019-05-21T10:03:04.558Z,2.30
2019-05-21T10:05:36.957Z,2.30
2019-05-21T10:08:09.455Z,2.30
2019-05-21T10:10:41.854Z,2.63
2019-05-21T10:13:14.303Z,2.13
2019-05-21T10:15:46.801Z,2.23
2019-05-21T10:18:19.322Z,2.47
2019-05-21T10:20:51.744Z,2.97
2019-05-21T10:23:24.159Z,2.47
2019-05-21T10:25:56.651Z,2.60
2019-05-21T10:28:29.074Z,2.77
2019-05-21T10:31:01.472Z,2.90
2019-05-21T10:33:34.855Z,2.73
2019-05-21T10:36:07.353Z,3.03
2019-05-21T10:38:39.785Z,2.73
2019-05-21T10:41:12.213Z,2.77
2019-05-21T10:43:44.626Z,3.33
2019-05-21T10:46:17.043Z,2.90
2019-05-21T10:48:49.569Z,2.67
2019-05-21T10:51:22.066Z,2.73
2019-05-21T10:53:54.485Z,3.00
2019-05-21T10:56:26.916Z,2.63
2019-05-21T10:58:59.381Z,2.83
2019-05-21T11:01:46.111Z,2.60
2019-05-21T11:04:41.655Z,2.70
2019-05-21T11:07:15.471Z,2.93
2019-05-21T11:09:47.897Z,2.93
2019-05-21T11:12:20.320Z,3.10
2019-05-21T11:14:52.726Z,2.87
2019-05-21T11:17:25.135Z,2.83
2019-05-21T11:19:57.673Z,3.27
2019-05-21T11:22:30.098Z,2.90
2019-05-21T11:25:02.523Z,3.07
2019-05-21T11:27:34.982Z,2.50
2019-05-21T11:30:07.813Z,2.73
2019-05-21T11:32:40.405Z,2.83
2019-05-21T11:35:12.943Z,2.60
2019-05-21T11:37:47.862Z,2.50
2019-05-21T11:40:19.617Z,2.57
2019-05-21T11:42:53.119Z,2.57
2019-05-21T11:45:32.100Z,2.67
2019-05-21T11:48:01.007Z,3.13
2019-05-21T11:50:33.435Z,2.90
2019-05-21T11:53:05.831Z,3.27
2019-05-21T11:55:38.257Z,3.00
2019-05-21T11:58:10.765Z,3.13
2019-05-21T12:00:43.182Z,3.23
2019-05-21T12:03:15.646Z,3.37
2019-05-21T12:05:48.080Z,3.13
2019-05-21T12:08:20.468Z,3.33
2019-05-21T12:10:52.885Z,3.17
2019-05-21T12:13:25.374Z,3.40
2019-05-21T12:15:57.813Z,3.33
2019-05-21T12:18:30.206Z,3.60
2019-05-21T12:21:02.650Z,3.30
2019-05-21T12:23:35.169Z,4.00
2019-05-21T12:26:07.573Z,3.50
2019-05-21T12:28:39.982Z,3.70
2019-05-21T12:31:12.405Z,3.70
2019-05-21T12:33:44.807Z,3.93
2019-05-21T12:36:17.230Z,3.57
2019-05-21T12:38:49.622Z,3.70
2019-05-21T12:41:22.052Z,3.27
2019-05-21T12:43:54.453Z,3.90
2019-05-21T12:46:26.875Z,3.70
2019-05-21T12:48:59.298Z,3.80
2019-05-21T12:51:31.737Z,3.40
2019-05-21T12:54:04.157Z,3.70
2019-05-21T12:56:40.449Z,3.27
2019-05-21T12:59:10.661Z,2.93
2019-05-21T13:01:43.286Z,3.27
2019-05-21T13:04:15.686Z,3.43
2019-05-21T13:06:48.110Z,3.37
2019-05-21T13:09:32.258Z,3.70
2019-05-21T13:11:54.663Z,3.13
2019-05-21T13:14:27.127Z,3.50
2019-05-21T13:17:00.575Z,3.53
2019-05-21T13:19:33.034Z,3.33
2019-05-21T13:22:05.520Z,3.60
2019-05-21T13:24:37.906Z,3.53
2019-05-21T13:27:10.323Z,3.37
2019-05-21T13:29:42.827Z,3.03
2019-05-21T13:32:15.333Z,3.20
2019-05-21T13:34:47.840Z,3.30
2019-05-21T13:37:20.261Z,3.10
2019-05-21T13:39:53.833Z,3.67
2019-05-21T13:42:26.258Z,4.30
2019-05-21T13:44:58.651Z,3.63
2019-05-21T13:47:31.129Z,4.07
2019-05-21T13:50:03.746Z,4.27
2019-05-21T13:52:46.475Z,4.83
2019-05-21T13:55:18.940Z,4.30
2019-05-21T13:57:51.421Z,4.20
2019-05-21T14:00:28.633Z,4.23
2019-05-21T14:03:01.326Z,4.60
2019-05-21T14:05:33.737Z,5.00
2019-05-21T14:08:06.417Z,4.47
2019-05-21T14:10:39.041Z,5.43
2019-05-21T14:13:11.573Z,5.20
2019-05-21T14:15:44.035Z,4.97
2019-05-21T14:18:16.523Z,5.27
2019-05-21T14:20:48.934Z,5.03
2019-05-21T14:23:21.484Z,4.97
2019-05-21T14:25:53.897Z,4.80
2019-05-21T14:28:26.351Z,5.47
2019-05-21T14:30:58.749Z,5.97
2019-05-21T14:33:31.221Z,5.50
2019-05-21T14:36:03.691Z,5.47
2019-05-21T14:38:36.140Z,6.17
2019-05-21T14:41:08.608Z,6.60
2019-05-21T14:43:41.039Z,5.70
2019-05-21T14:46:13.442Z,5.77
2019-05-21T14:48:45.879Z,5.40
2019-05-21T14:51:18.412Z,6.67
2019-05-21T14:53:53.706Z,6.47
2019-05-21T14:56:26.193Z,6.10
2019-05-21T14:58:58.656Z,6.37
2019-05-21T15:01:31.042Z,6.73
2019-05-21T15:04:03.625Z,5.90
2019-05-21T15:06:36.143Z,5.90
2019-05-21T15:09:08.724Z,6.40
2019-05-21T15:11:41.396Z,6.83
2019-05-21T15:14:13.810Z,6.27
2019-05-21T15:16:46.229Z,7.33
2019-05-21T15:19:18.732Z,6.97
2019-05-21T15:21:53.827Z,6.90
2019-05-21T15:24:26.251Z,7.63
2019-05-21T15:26:58.665Z,8.43
2019-05-21T15:29:31.085Z,7.47
2019-05-21T15:32:03.498Z,7.23
2019-05-21T15:34:35.984Z,8.07
2019-05-21T15:37:08.397Z,8.03
2019-05-21T15:39:42.474Z,7.90
2019-05-21T15:42:14.871Z,7.47
2019-05-21T15:44:47.369Z,7.70
2019-05-21T15:47:19.877Z,8.00
2019-05-21T15:49:52.364Z,7.87
2019-05-21T15:52:24.768Z,7.30
2019-05-21T15:54:57.194Z,8.17
2019-05-21T15:57:29.612Z,8.10
2019-05-21T16:00:02.039Z,8.00
2019-05-21T16:02:34.814Z,8.13
2019-05-21T16:05:07.288Z,7.60
2019-05-21T16:07:39.696Z,7.40
2019-05-21T16:10:12.127Z,7.23
2019-05-21T16:12:44.580Z,8.03
2019-05-21T16:15:17.049Z,7.30
2019-05-21T16:17:49.456Z,7.70
2019-05-21T16:20:21.879Z,8.13
2019-05-21T16:22:54.299Z,8.07
2019-05-21T16:25:26.882Z,8.50
2019-05-21T16:27:59.298Z,7.83
2019-05-21T16:30:31.729Z,7.97
2019-05-21T16:33:04.129Z,7.40
2019-05-21T16:35:36.553Z,7.83
2019-05-21T16:38:09.028Z,7.90
2019-05-21T16:40:41.474Z,7.30
2019-05-21T16:43:13.868Z,7.07
2019-05-21T16:45:46.295Z,7.73
2019-05-21T16:48:18.688Z,7.00
2019-05-21T16:50:51.103Z,7.10
2019-05-21T16:53:23.506Z,7.53
2019-05-21T16:55:56.257Z,6.50
2019-05-21T16:58:28.662Z,6.60
2019-05-21T17:01:01.617Z,7.20
2019-05-21T17:03:36.533Z,7.00
2019-05-21T17:06:08.759Z,7.93
2019-05-21T17:08:41.266Z,7.90
2019-05-21T17:11:13.784Z,7.23
2019-05-21T17:13:48.310Z,7.10
2019-05-21T17:16:20.749Z,7.50
2019-05-21T17:18:53.283Z,6.87
2019-05-21T17:21:26.148Z,7.40
2019-05-21T17:23:58.914Z,7.07
2019-05-21T17:26:32.058Z,7.30
2019-05-21T17:29:04.513Z,6.93
2019-05-21T17:31:37.968Z,6.83
2019-05-21T17:34:10.374Z,8.13
2019-05-21T17:36:44.357Z,7.90
2019-05-21T17:39:17.796Z,7.80
2019-05-21T17:41:50.474Z,8.30
2019-05-21T17:44:24.966Z,7.93
2019-05-21T17:46:57.180Z,8.43
2019-05-21T17:49:29.622Z,7.87
2019-05-21T17:52:02.134Z,8.60
2019-05-21T17:54:35.158Z,8.57
2019-05-21T17:57:08.088Z,9.40
2019-05-21T17:59:41.316Z,8.20
2019-05-21T18:02:15.659Z,8.57
2019-05-21T18:04:50.607Z,9.10
2019-05-21T18:07:23.926Z,9.40
2019-05-21T18:09:56.527Z,9.53
2019-05-21T18:12:31.955Z,10.50
2019-05-21T18:15:03.350Z,10.53
2019-05-21T18:17:38.445Z,9.63
2019-05-21T18:20:12.724Z,10.17
2019-05-21T18:22:47.988Z,10.60
2019-05-21T18:25:20.431Z,9.83
2019-05-21T18:27:52.895Z,10.03
2019-05-21T18:30:25.989Z,10.17
2019-05-21T18:32:58.827Z,10.33
2019-05-21T18:35:31.526Z,10.50
2019-05-21T18:38:04.111Z,10.83
2019-05-21T18:40:36.785Z,11.17
2019-05-21T18:43:09.342Z,11.07
2019-05-21T18:45:41.812Z,11.73
2019-05-21T18:48:14.283Z,10.50
2019-05-21T18:50:46.766Z,11.07
2019-05-21T18:53:19.369Z,11.23
2019-05-21T18:55:51.816Z,12.10
2019-05-21T18:58:24.259Z,11.90
2019-05-21T19:00:56.775Z,11.53
2019-05-21T19:03:29.208Z,12.57
2019-05-21T19:06:01.690Z,12.07
2019-05-21T19:08:34.192Z,12.20
2019-05-21T19:11:06.745Z,12.33
2019-05-21T19:13:39.172Z,12.43
2019-05-21T19:16:11.622Z,12.67
2019-05-21T19:18:45.197Z,12.40
2019-05-21T19:21:18.732Z,12.47
2019-05-21T19:23:51.364Z,12.57
2019-05-21T19:26:23.804Z,12.63
2019-05-21T19:28:56.233Z,13.00
2019-05-21T19:31:28.726Z,13.37
2019-05-21T19:34:01.170Z,13.77
2019-05-21T19:36:33.585Z,13.63
2019-05-21T19:39:07.683Z,12.97
2019-05-21T19:41:40.162Z,13.50
2019-05-21T19:44:12.568Z,14.40
2019-05-21T19:46:45.015Z,13.00
2019-05-21T19:49:17.692Z,12.67
2019-05-21T19:51:50.119Z,13.33
2019-05-21T19:54:22.655Z,13.23
2019-05-21T19:56:55.257Z,15.33
2019-05-21T19:59:27.895Z,15.17
2019-05-21T20:02:00.325Z,14.37
2019-05-21T20:04:32.849Z,15.33
2019-05-21T20:07:07.679Z,14.37
2019-05-21T20:09:41.737Z,15.50
2019-05-21T20:12:14.655Z,15.10
2019-05-21T20:14:47.652Z,15.93
2019-05-21T20:17:20.578Z,15.93
2019-05-21T20:19:53.189Z,14.80
2019-05-21T20:22:26.405Z,14.90
2019-05-21T20:24:59.106Z,15.13
2019-05-21T20:27:31.529Z,15.63
2019-05-21T20:30:12.722Z,15.50
2019-05-21T20:32:41.037Z,14.53
2019-05-21T20:35:16.846Z,15.47
2019-05-21T20:37:49.983Z,15.40
2019-05-21T20:40:23.348Z,15.33
2019-05-21T20:42:56.072Z,14.53
2019-05-21T20:45:28.667Z,15.87
2019-05-21T20:48:01.096Z,14.97
2019-05-21T20:50:34.097Z,14.73
2019-05-21T20:53:06.538Z,15.03
2019-05-21T20:55:39.127Z,15.97
2019-05-21T20:58:11.574Z,16.13
2019-05-21T21:00:53.602Z,16.37
2019-05-21T21:03:26.047Z,16.27
2019-05-21T21:05:58.751Z,16.37
2019-05-21T21:08:32.998Z,17.53
2019-05-21T21:11:07.176Z,16.83
2019-05-21T21:13:40.677Z,17.03
2019-05-21T21:16:13.530Z,16.33
2019-05-21T21:18:46.185Z,17.90
2019-05-21T21:21:18.602Z,16.97
2019-05-21T21:23:55.939Z,16.13
2019-05-21T21:26:26.974Z,16.10
2019-05-21T21:29:00.584Z,16.83
2019-05-21T21:31:33.225Z,17.90
2019-05-21T21:34:06.134Z,17.50
2019-05-21T21:36:38.646Z,17.77
2019-05-21T21:39:11.975Z,16.80
2019-05-21T21:41:45.052Z,17.93
2019-05-21T21:44:33.122Z,18.33
2019-05-21T21:46:54.963Z,17.57
2019-05-21T21:49:28.979Z,18.77
2019-05-21T21:52:01.564Z,17.57
2019-05-21T21:54:34.466Z,19.67
2019-05-21T21:57:07.045Z,18.23
2019-05-21T21:59:39.474Z,18.80
2019-05-21T22:02:26.818Z,19.40
2019-05-21T22:05:00.134Z,19.70
2019-05-21T22:07:32.953Z,21.10
2019-05-21T22:10:06.959Z,19.37
2019-05-21T22:12:39.639Z,20.70
2019-05-21T22:15:12.857Z,21.63
2019-05-21T22:17:45.354Z,20.87
2019-05-21T22:20:18.697Z,20.80
2019-05-21T22:22:51.110Z,20.17
2019-05-21T22:25:23.642Z,21.23
2019-05-21T22:27:56.178Z,20.17
2019-05-21T22:30:29.693Z,20.70
2019-05-21T22:33:02.188Z,20.83
2019-05-21T22:35:34.625Z,21.20
2019-05-21T22:38:07.030Z,22.20
2019-05-21T22:40:39.471Z,21.40
2019-05-21T22:43:12.958Z,20.00
2019-05-21T22:45:45.484Z,22.50
2019-05-21T22:48:17.888Z,22.60
2019-05-21T22:50:50.322Z,22.20
2019-05-21T22:53:22.786Z,22.17
2019-05-21T22:55:55.253Z,20.93
2019-05-21T22:58:27.663Z,21.67
2019-05-21T23:01:01.802Z,21.80
2019-05-21T23:03:34.211Z,22.77
2019-05-21T23:06:06.681Z,22.70
2019-05-21T23:08:39.180Z,23.60
2019-05-21T23:11:11.861Z,23.27
2019-05-21T23:13:44.277Z,21.37
2019-05-21T23:16:17.383Z,23.27
2019-05-21T23:19:08.781Z,22.07
2019-05-21T23:21:44.074Z,23.23
2019-05-21T23:24:21.349Z,22.57
2019-05-21T23:26:54.543Z,23.03
2019-05-21T23:29:27.231Z,23.43
2019-05-21T23:31:59.674Z,23.23
2019-05-21T23:34:32.691Z,24.23
2019-05-21T23:37:07.270Z,23.37
2019-05-21T23:39:40.505Z,22.07
2019-05-21T23:42:27.182Z,20.93
2019-05-21T23:44:48.013Z,22.93
2019-05-21T23:47:20.628Z,23.03
2019-05-21T23:49:53.178Z,22.77
2019-05-21T23:52:26.542Z,22.90
2019-05-21T23:54:59.924Z,22.10
2019-05-21T23:57:33.476Z,21.90
